Time;durP1;ratioP1;P1;durP2;ratioP2;P2;SDS_P1;SDS_P2;PMS_P1;PMS_P2;Temp;Humidity;BMP_temperature;BMP_pressure;BME280_temperature;BME280_humidity;BME280_pressure;Samples;Min_cycle;Max_cycle;Signal;HPM_P1;HPM_P2
2023/06/07 00:01:08;;;;;;;10.50;9.40;;;;;;;13.33;100.00;98747.94;4155937;28;20397;-71
2023/06/07 00:03:09;;;;;;;10.23;9.23;;;;;;;13.35;100.00;98744.75;4155321;28;20136;-71
2023/06/07 00:05:10;;;;;;;12.02;10.05;;;;;;;13.30;100.00;98748.69;4155955;28;20085;-71
2023/06/07 00:07:11;;;;;;;12.00;10.20;;;;;;;13.23;100.00;98751.44;4156530;28;20501;-71
2023/06/07 00:09:12;;;;;;;10.98;9.93;;;;;;;13.18;100.00;98751.78;4156007;28;20049;-71
2023/06/07 00:11:12;;;;;;;10.93;9.90;;;;;;;13.14;100.00;98751.75;4155995;28;20140;-71
2023/06/07 00:13:12;;;;;;;12.05;9.38;;;;;;;13.13;100.00;98752.16;4155169;28;20041;-71
2023/06/07 00:15:13;;;;;;;12.93;9.85;;;;;;;13.09;100.00;98752.13;4156135;28;20061;-71
2023/06/07 00:17:15;;;;;;;11.63;10.00;;;;;;;13.05;100.00;98745.75;4155739;28;20045;-71
2023/06/07 00:19:21;;;;;;;12.25;11.05;;;;;;;13.03;100.00;98756.47;4155980;28;20099;-71
2023/06/07 00:21:22;;;;;;;11.93;10.10;;;;;;;12.98;100.00;98750.47;4155887;28;20068;-71
2023/06/07 00:23:26;;;;;;;11.13;10.02;;;;;;;12.97;100.00;98757.22;4155393;28;20617;-71
2023/06/07 00:25:26;;;;;;;13.18;11.40;;;;;;;12.95;100.00;98749.28;4155318;28;20038;-71
2023/06/07 00:27:27;;;;;;;11.63;10.40;;;;;;;12.94;100.00;98753.22;4156014;28;20060;-71
2023/06/07 00:29:27;;;;;;;12.95;10.40;;;;;;;12.91;100.00;98756.78;4155779;28;20041;-71
2023/06/07 00:31:27;;;;;;;12.50;10.55;;;;;;;12.89;100.00;98750.81;4155705;28;20104;-71
2023/06/07 00:33:28;;;;;;;12.32;10.55;;;;;;;12.89;100.00;98753.59;4157789;28;20120;-71
2023/06/07 00:35:28;;;;;;;13.30;10.68;;;;;;;12.91;100.00;98751.25;4158418;28;20061;-71
2023/06/07 00:37:28;;;;;;;12.93;10.70;;;;;;;12.89;100.00;98748.81;4157464;28;20081;-71
2023/06/07 00:39:29;;;;;;;12.10;10.52;;;;;;;12.92;100.00;98756.41;4157630;28;20628;-71
2023/06/07 00:41:29;;;;;;;11.77;10.55;;;;;;;12.90;100.00;98744.88;4158391;28;20042;-70
2023/06/07 00:43:29;;;;;;;12.20;10.90;;;;;;;12.93;100.00;98757.19;4158401;28;20037;-71
2023/06/07 00:45:30;;;;;;;13.70;11.15;;;;;;;12.92;100.00;98755.59;4157013;28;20052;-71
2023/06/07 00:47:30;;;;;;;12.13;10.75;;;;;;;12.99;100.00;98764.00;4156285;28;20049;-71
2023/06/07 00:49:31;;;;;;;13.57;10.93;;;;;;;13.00;100.00;98745.34;4159695;28;20400;-71
2023/06/07 00:51:31;;;;;;;12.65;11.13;;;;;;;13.04;100.00;98758.06;4160084;28;20064;-71
2023/06/07 00:53:32;;;;;;;11.52;10.32;;;;;;;13.05;100.00;98764.41;4158661;28;20099;-71
2023/06/07 00:55:32;;;;;;;12.10;10.90;;;;;;;13.05;100.00;98759.63;4159044;28;20045;-71
2023/06/07 00:57:33;;;;;;;12.73;11.43;;;;;;;13.07;100.00;98762.03;4159550;28;20041;-71
2023/06/07 00:59:33;;;;;;;13.88;11.80;;;;;;;13.06;100.00;98768.78;4158788;28;20340;-71
2023/06/07 01:01:33;;;;;;;14.20;12.18;;;;;;;13.04;100.00;98768.38;4159251;28;20033;-71
2023/06/07 01:03:37;;;;;;;14.70;13.18;;;;;;;12.98;100.00;98758.81;4158517;28;20037;-71
2023/06/07 01:05:37;;;;;;;15.65;12.85;;;;;;;12.97;100.00;98759.97;4159559;28;20029;-71
2023/06/07 01:07:37;;;;;;;20.15;11.63;;;;;;;12.98;100.00;98759.59;4159066;28;20071;-70
2023/06/07 01:09:38;;;;;;;15.00;12.40;;;;;;;12.98;100.00;98762.38;4159066;28;20120;-71
2023/06/07 01:11:42;;;;;;;14.75;13.35;;;;;;;12.97;100.00;98755.22;4159448;28;20052;-71
2023/06/07 01:13:42;;;;;;;15.73;12.15;;;;;;;12.96;100.00;98759.19;4158398;28;20499;-71
2023/06/07 01:15:44;;;;;;;13.23;11.48;;;;;;;12.96;100.00;98753.63;4158853;28;20057;-71
2023/06/07 01:17:47;;;;;;;14.10;12.50;;;;;;;12.91;100.00;98746.47;4158516;28;20044;-71
2023/06/07 01:19:51;;;;;;;13.50;11.40;;;;;;;12.91;100.00;98742.91;4158453;28;20053;-71
2023/06/07 01:21:59;;;;;;;12.57;11.27;;;;;;;12.88;100.00;98747.25;4159259;28;20057;-71
2023/06/07 01:23:59;;;;;;;13.15;9.82;;;;;;;12.88;100.00;98743.66;4158601;28;20041;-70
2023/06/07 01:26:01;;;;;;;10.70;9.35;;;;;;;12.85;100.00;98752.78;4158605;28;20052;-69
2023/06/07 01:28:02;;;;;;;15.82;9.75;;;;;;;12.81;100.00;98738.06;4158250;28;20052;-71
2023/06/07 01:30:03;;;;;;;13.90;11.25;;;;;;;12.79;100.00;98746.78;4158132;28;20118;-71
2023/06/07 01:32:07;;;;;;;14.40;11.32;;;;;;;12.74;100.00;98741.59;4159161;28;20037;-71
2023/06/07 01:34:08;;;;;;;12.40;10.93;;;;;;;12.73;100.00;98748.31;4158978;28;20366;-71
2023/06/07 01:36:10;;;;;;;13.00;11.70;;;;;;;12.71;100.00;98741.56;4159271;28;20242;-71
2023/06/07 01:38:12;;;;;;;13.68;12.27;;;;;;;12.68;100.00;98734.81;4158649;28;20026;-71
2023/06/07 01:40:14;;;;;;;14.52;12.90;;;;;;;12.64;100.00;98739.53;4158824;28;20465;-71
2023/06/07 01:42:16;;;;;;;13.90;12.40;;;;;;;12.64;100.00;98737.53;4158626;28;20029;-71
2023/06/07 01:44:18;;;;;;;15.93;11.73;;;;;;;12.64;100.00;98732.00;4157144;28;20117;-71
2023/06/07 01:46:19;;;;;;;14.50;11.73;;;;;;;12.65;100.00;98735.56;4158298;28;20112;-71
2023/06/07 01:48:20;;;;;;;14.87;12.47;;;;;;;12.63;100.00;98738.72;4158655;28;20451;-71
2023/06/07 01:50:22;;;;;;;13.38;11.57;;;;;;;12.63;100.00;98726.84;4158692;28;20379;-71
2023/06/07 01:52:22;;;;;;;14.57;12.98;;;;;;;12.64;100.00;98728.44;4158037;28;20363;-71
2023/06/07 01:54:23;;;;;;;13.82;12.32;;;;;;;12.64;100.00;98725.66;4158086;28;20494;-71
2023/06/07 01:56:47;;;;;;;14.55;12.30;;;;;;;12.64;100.00;98729.22;4158659;28;20132;-71
2023/06/07 01:59:09;;;;;;;16.52;12.43;;;;;;;12.59;100.00;98721.28;4158219;28;20183;-71
2023/06/07 02:01:26;;;;;;;16.63;13.15;;;;;;;12.57;100.00;98723.63;4158300;28;20053;-71
2023/06/07 02:03:38;;;;;;;21.10;14.05;;;;;;;12.55;100.00;98727.97;4157448;28;20529;-70
2023/06/07 02:05:45;;;;;;;18.85;14.23;;;;;;;12.55;100.00;98733.50;4157932;28;20052;-71
2023/06/07 02:07:48;;;;;;;19.42;14.27;;;;;;;12.54;100.00;98724.41;4158091;28;20144;-71
2023/06/07 02:09:50;;;;;;;18.30;14.45;;;;;;;12.55;100.00;98725.97;4158059;28;20037;-71
2023/06/07 02:11:52;;;;;;;16.65;13.85;;;;;;;12.56;100.00;98724.81;4158333;28;20478;-71
2023/06/07 02:13:53;;;;;;;21.08;14.52;;;;;;;12.60;100.00;98733.16;4156888;28;20107;-71
2023/06/07 02:15:54;;;;;;;16.85;13.02;;;;;;;12.60;100.00;98731.19;4158016;28;20034;-71
2023/06/07 02:17:58;;;;;;;15.27;13.10;;;;;;;12.62;100.00;98728.81;4158232;28;20083;-71
2023/06/07 02:19:58;;;;;;;16.73;13.57;;;;;;;12.66;100.00;98734.41;4158057;28;20060;-71
2023/06/07 02:21:59;;;;;;;16.48;12.95;;;;;;;12.67;100.00;98738.78;4158098;28;20784;-71
2023/06/07 02:23:59;;;;;;;13.05;11.52;;;;;;;12.71;100.00;98742.38;4157145;28;20044;-71
2023/06/07 02:26:00;;;;;;;13.00;11.38;;;;;;;12.76;100.00;98736.47;4158070;28;20308;-71
2023/06/07 02:28:00;;;;;;;15.40;13.65;;;;;;;12.76;100.00;98738.44;4157891;28;20044;-71
2023/06/07 02:30:01;;;;;;;15.65;12.82;;;;;;;12.77;100.00;98742.81;4157237;28;20045;-71
2023/06/07 02:32:01;;;;;;;18.33;14.27;;;;;;;12.78;100.00;98734.09;4157725;28;20030;-71
2023/06/07 02:34:01;;;;;;;19.27;12.52;;;;;;;12.85;100.00;98738.91;4157449;28;20018;-71
2023/06/07 02:36:02;;;;;;;14.10;12.30;;;;;;;12.88;100.00;98733.34;4157431;28;20348;-71
2023/06/07 02:38:02;;;;;;;17.85;13.35;;;;;;;12.93;100.00;98744.09;4157909;28;20037;-71
2023/06/07 02:40:05;;;;;;;16.08;14.13;;;;;;;12.92;100.00;98736.16;4158215;28;20844;-71
2023/06/07 02:42:06;;;;;;;17.13;13.73;;;;;;;12.94;100.00;98742.91;4157233;28;20491;-71
2023/06/07 02:44:06;;;;;;;20.30;14.00;;;;;;;12.92;100.00;98739.75;4156927;28;20241;-71
2023/06/07 02:46:06;;;;;;;17.42;14.48;;;;;;;12.92;100.00;98738.94;4157924;28;20064;-71
2023/06/07 02:48:07;;;;;;;16.50;14.57;;;;;;;12.91;100.00;98740.94;4155740;28;20438;-71
2023/06/07 02:50:08;;;;;;;15.00;13.40;;;;;;;12.91;100.00;98729.81;4159519;28;20033;-71
2023/06/07 02:52:10;;;;;;;15.30;13.32;;;;;;;12.96;100.00;98738.97;4157463;28;20072;-71
2023/06/07 02:54:10;;;;;;;16.13;12.88;;;;;;;12.98;100.00;98742.13;4156850;28;20029;-71
2023/06/07 02:56:11;;;;;;;16.10;13.02;;;;;;;13.01;100.00;98746.94;4156197;28;20374;-71
2023/06/07 02:58:13;;;;;;;17.13;13.18;;;;;;;13.05;100.00;98740.19;4157715;28;20033;-71
2023/06/07 03:00:14;;;;;;;15.32;13.73;;;;;;;13.05;100.00;98733.84;4157374;28;20468;-71
2023/06/07 03:02:15;;;;;;;23.38;15.20;;;;;;;13.08;100.00;98727.53;4157771;28;20052;-71
2023/06/07 03:04:18;;;;;;;14.98;13.45;;;;;;;13.06;100.00;98732.66;4156146;28;20057;-71
2023/06/07 03:06:19;;;;;;;15.05;13.27;;;;;;;13.06;100.00;98730.69;4152997;28;20034;-71
2023/06/07 03:08:19;;;;;;;15.07;13.57;;;;;;;13.04;100.00;98727.50;4155084;28;20182;-71
2023/06/07 03:10:20;;;;;;;19.10;14.95;;;;;;;13.03;100.00;98725.91;4156642;28;20033;-71
2023/06/07 03:12:20;;;;;;;16.10;14.40;;;;;;;13.04;100.00;98735.84;4156708;28;20041;-71
2023/06/07 03:14:20;;;;;;;16.10;14.52;;;;;;;13.04;100.00;98735.03;4156281;28;20105;-71
2023/06/07 03:16:22;;;;;;;17.67;14.75;;;;;;;13.06;100.00;98730.69;4155213;28;20057;-71
2023/06/07 03:18:23;;;;;;;15.60;13.65;;;;;;;13.08;100.00;98735.88;4156458;28;20434;-71
2023/06/07 03:20:23;;;;;;;14.32;12.63;;;;;;;13.11;100.00;98733.09;4154947;28;20053;-71
2023/06/07 03:22:23;;;;;;;15.85;13.90;;;;;;;13.16;100.00;98743.06;4156112;28;20044;-71
2023/06/07 03:24:24;;;;;;;18.42;14.27;;;;;;;13.15;100.00;98745.00;4150473;28;20069;-71
2023/06/07 03:26:25;;;;;;;17.50;13.20;;;;;;;13.16;100.00;98743.06;4149497;28;20441;-71
2023/06/07 03:28:25;;;;;;;17.85;12.98;;;;;;;13.13;100.00;98739.06;4154202;28;20042;-71
2023/06/07 03:30:25;;;;;;;15.55;13.85;;;;;;;13.14;100.00;98742.63;4155965;28;20057;-71
2023/06/07 03:32:26;;;;;;;16.70;13.05;;;;;;;13.12;100.00;98743.03;4156088;28;20038;-71
2023/06/07 03:34:29;;;;;;;19.02;14.48;;;;;;;13.12;100.00;98745.00;4154019;28;20128;-71
2023/06/07 03:36:30;;;;;;;15.65;14.05;;;;;;;13.11;100.00;98740.63;4149264;28;20481;-71
2023/06/07 03:38:30;;;;;;;17.35;14.50;;;;;;;13.11;100.00;98744.22;4149291;28;20052;-71
2023/06/07 03:40:31;;;;;;;15.55;13.85;;;;;;;13.10;100.00;98750.94;4151959;28;20053;-71
2023/06/07 03:42:31;;;;;;;14.38;12.90;;;;;;;13.10;100.00;98748.19;4152112;28;20037;-71
2023/06/07 03:44:32;;;;;;;13.98;12.55;;;;;;;13.12;100.00;98754.13;4154551;28;20037;-71
2023/06/07 03:46:32;;;;;;;16.73;15.05;;;;;;;13.12;100.00;98753.34;4156243;28;20052;-71
2023/06/07 03:48:32;;;;;;;15.68;13.40;;;;;;;13.11;100.00;98758.09;4156305;28;20042;-71
2023/06/07 03:50:32;;;;;;;17.33;15.52;;;;;;;13.11;100.00;98757.31;4152715;28;20169;-71
2023/06/07 03:52:33;;;;;;;18.02;15.18;;;;;;;13.10;100.00;98748.19;4153586;28;20041;-71
2023/06/07 03:54:33;;;;;;;16.17;14.00;;;;;;;13.12;100.00;98758.88;4155620;28;20087;-71
2023/06/07 03:56:34;;;;;;;16.92;15.23;;;;;;;13.14;100.00;98754.53;4156016;28;20624;-71
2023/06/07 03:58:35;;;;;;;16.60;14.85;;;;;;;13.13;100.00;98750.16;4155511;28;20033;-71
2023/06/07 04:00:36;;;;;;;23.43;17.30;;;;;;;13.14;100.00;98760.09;4154343;28;20060;-71
2023/06/07 04:02:37;;;;;;;19.88;17.48;;;;;;;13.15;100.00;98753.34;4155169;28;20128;-71
2023/06/07 04:04:37;;;;;;;18.85;16.17;;;;;;;13.16;100.00;98752.19;4156105;28;20041;-71
2023/06/07 04:06:39;;;;;;;19.70;16.33;;;;;;;13.17;100.00;98753.78;4154930;28;20072;-71
2023/06/07 04:08:40;;;;;;;16.93;15.13;;;;;;;13.19;100.00;98758.94;4154110;28;20045;-71
2023/06/07 04:10:41;;;;;;;20.05;16.30;;;;;;;13.23;100.00;98756.19;4155510;28;20264;-71
2023/06/07 04:12:43;;;;;;;19.55;16.15;;;;;;;13.24;100.00;98755.84;4153323;28;20068;-71
2023/06/07 04:14:44;;;;;;;17.08;15.27;;;;;;;13.27;100.00;98757.03;4155620;28;20053;-71
2023/06/07 04:16:44;;;;;;;17.10;15.02;;;;;;;13.31;100.00;98758.63;4156118;28;20375;-71
2023/06/07 04:18:44;;;;;;;17.45;15.55;;;;;;;13.36;100.00;98757.47;4153996;28;20033;-71
2023/06/07 04:20:45;;;;;;;16.77;14.98;;;;;;;13.38;100.00;98766.19;4156061;28;20036;-71
2023/06/07 04:22:45;;;;;;;20.92;18.70;;;;;;;13.39;100.00;98751.91;4153537;28;20391;-71
2023/06/07 04:24:46;;;;;;;22.25;18.40;;;;;;;13.40;100.00;98755.47;4155726;28;20049;-71
2023/06/07 04:26:47;;;;;;;20.30;17.45;;;;;;;13.42;100.00;98748.38;4155342;28;20045;-71
2023/06/07 04:28:49;;;;;;;21.20;17.17;;;;;;;13.43;100.00;98755.50;4154820;28;20140;-71
2023/06/07 04:30:53;;;;;;;20.80;16.73;;;;;;;13.45;100.00;98750.34;4156158;28;20540;-71
2023/06/07 04:32:53;;;;;;;18.38;16.45;;;;;;;13.46;100.00;98742.81;4155279;28;20072;-71
2023/06/07 04:34:55;;;;;;;18.10;16.20;;;;;;;13.49;100.00;98745.63;4156423;28;20406;-71
2023/06/07 04:36:56;;;;;;;17.98;16.10;;;;;;;13.53;100.00;98745.63;4156082;28;20045;-71
2023/06/07 04:38:58;;;;;;;23.15;20.50;;;;;;;13.54;100.00;98747.22;4156259;28;20037;-71
2023/06/07 04:41:00;;;;;;;23.23;20.70;;;;;;;13.52;100.00;98741.25;4157407;28;20041;-71
2023/06/07 04:43:06;;;;;;;23.83;21.00;;;;;;;13.55;100.00;98748.00;4155752;28;20289;-71
2023/06/07 04:45:07;;;;;;;22.98;19.85;;;;;;;13.57;100.00;98742.84;4156486;28;20049;-71
2023/06/07 04:47:09;;;;;;;21.63;19.08;;;;;;;13.60;100.00;98742.09;4155584;28;20439;-71
2023/06/07 04:49:11;;;;;;;21.70;18.97;;;;;;;13.60;100.00;98739.31;4144489;28;20540;-71
2023/06/07 04:51:13;;;;;;;;;;;;;;;13.66;100.00;98744.09;4157145;28;20269;-71
2023/06/07 04:53:17;;;;;;;20.85;17.33;;;;;;;13.68;100.00;98747.28;4155818;28;19921;-71
2023/06/07 04:55:20;;;;;;;19.30;17.20;;;;;;;13.74;100.00;98748.50;4156828;28;20041;-71
2023/06/07 04:57:22;;;;;;;19.42;16.38;;;;;;;13.80;100.00;98748.09;4132131;28;20397;-71
2023/06/07 04:59:24;;;;;;;20.63;18.23;;;;;;;13.83;100.00;98753.69;4155236;28;20390;-71
2023/06/07 05:01:24;;;;;;;21.08;18.75;;;;;;;13.88;100.00;98753.28;4140371;28;20088;-71
2023/06/07 05:03:25;;;;;;;24.45;19.05;;;;;;;13.91;100.00;98758.06;4139069;28;20053;-71
2023/06/07 05:05:26;;;;;;;22.15;19.85;;;;;;;13.93;100.00;98758.47;4139197;28;20046;-71
2023/06/07 05:07:27;;;;;;;23.77;20.15;;;;;;;13.95;100.00;98763.63;4139322;28;20042;-71
2023/06/07 05:09:28;;;;;;;22.73;18.67;;;;;;;13.94;100.00;98751.72;4139131;28;20440;-71
2023/06/07 05:11:28;;;;;;;22.83;19.20;;;;;;;13.98;100.00;98758.09;4139770;28;20305;-71
2023/06/07 05:13:28;;;;;;;22.95;19.65;;;;;;;14.00;100.00;98760.47;4138850;28;20061;-71
2023/06/07 05:15:31;;;;;;;21.23;18.30;;;;;;;14.04;100.00;98759.28;4139693;28;20481;-71
2023/06/07 05:17:32;;;;;;;25.25;21.85;;;;;;;14.04;100.00;98755.69;4139929;28;20038;-71
2023/06/07 05:19:32;;;;;;;21.52;19.20;;;;;;;14.09;100.00;98768.44;4141532;28;20628;-71
2023/06/07 05:21:32;;;;;;;21.70;19.27;;;;;;;14.10;100.00;98770.03;4142255;28;20070;-71
2023/06/07 05:23:33;;;;;;;22.00;19.10;;;;;;;14.08;100.00;98766.84;4142151;28;20486;-71
2023/06/07 05:25:33;;;;;;;23.50;21.02;;;;;;;14.12;100.00;98767.66;4142348;28;20038;-71
2023/06/07 05:27:33;;;;;;;27.90;20.20;;;;;;;14.11;100.00;98771.63;4142341;28;20119;-71
2023/06/07 05:29:33;;;;;;;22.85;20.38;;;;;;;14.12;100.00;98773.22;4142754;28;20046;-71
2023/06/07 05:31:34;;;;;;;20.90;18.75;;;;;;;14.15;100.00;98777.97;4142503;28;20513;-71
2023/06/07 05:33:34;;;;;;;24.23;18.75;;;;;;;14.17;100.00;98772.84;4142672;28;20042;-71
2023/06/07 05:35:35;;;;;;;22.63;20.15;;;;;;;14.18;100.00;98768.84;4141955;28;20045;-71
2023/06/07 05:37:35;;;;;;;24.63;20.38;;;;;;;14.21;100.00;98768.84;4142084;28;20048;-71
2023/06/07 05:39:35;;;;;;;23.05;19.42;;;;;;;14.23;100.00;98766.50;4141034;28;20140;-71
2023/06/07 05:41:37;;;;;;;26.30;22.13;;;;;;;14.30;100.00;98776.81;4142352;28;20410;-71
2023/06/07 05:43:37;;;;;;;24.50;21.73;;;;;;;14.32;100.00;98775.25;4140974;28;20041;-71
2023/06/07 05:45:40;;;;;;;26.17;22.70;;;;;;;14.36;100.00;98774.44;4141028;28;20058;-71
2023/06/07 05:47:41;;;;;;;;;;;;;;;14.36;100.00;98775.22;4142664;28;20089;-71
2023/06/07 05:49:44;;;;;;;22.55;18.73;;;;;;;14.37;100.00;98776.03;4141995;28;19976;-71
2023/06/07 05:51:44;;;;;;;25.60;20.50;;;;;;;14.36;100.00;98775.22;4142105;28;20422;-71
2023/06/07 05:53:45;;;;;;;26.23;19.83;;;;;;;14.38;100.00;98781.19;4141521;28;20037;-71
2023/06/07 05:55:45;;;;;;;23.88;18.98;;;;;;;14.38;100.00;98772.84;4142091;28;20042;-71
2023/06/07 05:57:46;;;;;;;24.15;20.20;;;;;;;14.41;100.00;98776.84;4141977;28;20041;-71
2023/06/07 05:59:46;;;;;;;26.67;20.73;;;;;;;14.46;100.00;98782.03;4142746;28;20038;-71
2023/06/07 06:01:47;;;;;;;25.08;19.08;;;;;;;14.48;100.00;98780.47;4141976;28;20096;-71
2023/06/07 06:03:48;;;;;;;24.67;20.48;;;;;;;14.50;100.00;98772.50;4141325;28;20128;-71
2023/06/07 06:05:48;;;;;;;28.58;22.17;;;;;;;14.51;100.00;98774.09;4142218;28;20510;-71
2023/06/07 06:07:48;;;;;;;25.52;21.13;;;;;;;14.53;100.00;98791.19;4146702;28;20073;-71
2023/06/07 06:09:49;;;;;;;25.27;21.67;;;;;;;14.56;100.00;98781.22;4141231;28;20038;-71
2023/06/07 06:11:50;;;;;;;27.10;21.90;;;;;;;14.59;100.00;98786.03;4136727;28;20081;-71
2023/06/07 06:13:50;;;;;;;23.58;19.42;;;;;;;14.62;100.00;98788.00;4141687;28;20187;-71
2023/06/07 06:15:50;;;;;;;29.35;23.67;;;;;;;14.66;100.00;98794.38;4141746;28;20050;-71
2023/06/07 06:17:54;;;;;;;24.98;21.63;;;;;;;14.69;100.00;98790.78;4140859;28;20500;-71
2023/06/07 06:19:54;;;;;;;26.60;20.10;;;;;;;14.73;100.00;98786.03;4139692;28;20054;-71
2023/06/07 06:21:54;;;;;;;25.35;20.45;;;;;;;14.76;100.00;98785.22;4140515;28;20041;-71
2023/06/07 06:23:55;;;;;;;26.98;22.27;;;;;;;14.82;100.00;98788.41;4141133;28;20125;-71
2023/06/07 06:25:55;;;;;;;29.30;22.92;;;;;;;14.87;100.00;98790.78;4141587;28;20473;-71
2023/06/07 06:27:56;;;;;;;25.27;20.90;;;;;;;14.90;100.00;98787.22;4140383;28;20053;-71
2023/06/07 06:29:56;;;;;;;29.73;22.73;;;;;;;14.92;100.00;98784.03;4137936;28;20038;-71
2023/06/07 06:31:56;;;;;;;26.08;20.88;;;;;;;14.97;100.00;98797.53;4137006;28;20030;-71
2023/06/07 06:33:56;;;;;;;24.77;19.90;;;;;;;15.00;100.00;98796.75;4140219;28;20069;-71
2023/06/07 06:35:57;;;;;;;26.42;21.00;;;;;;;15.02;100.00;98797.16;4141623;28;20133;-71
2023/06/07 06:37:57;;;;;;;26.00;20.35;;;;;;;15.03;100.00;98796.75;4141143;28;20099;-71
2023/06/07 06:39:58;;;;;;;25.48;22.42;;;;;;;15.04;100.00;98795.53;4141363;28;20061;-71
2023/06/07 06:41:58;;;;;;;27.27;22.42;;;;;;;15.12;100.00;98793.53;4138483;28;20576;-71
2023/06/07 06:43:58;;;;;;;25.35;21.52;;;;;;;15.12;100.00;98796.31;4139511;28;20128;-71
2023/06/07 06:45:59;;;;;;;28.05;22.70;;;;;;;15.14;100.00;98797.53;4141161;28;20073;-71
2023/06/07 06:47:59;;;;;;;27.27;22.55;;;;;;;15.14;100.00;98803.09;4141300;28;20373;-71
2023/06/07 06:50:00;;;;;;;26.45;21.60;;;;;;;15.15;100.00;98799.13;4140708;28;20048;-71
2023/06/07 06:52:00;;;;;;;27.13;22.00;;;;;;;15.20;100.00;98808.25;4127882;28;20431;-71
2023/06/07 06:54:00;;;;;;;23.38;19.65;;;;;;;15.21;100.00;98804.28;4138189;28;20104;-71
2023/06/07 06:56:02;;;;;;;26.23;20.65;;;;;;;15.24;100.00;98801.50;4140591;28;20080;-71
2023/06/07 06:58:02;;;;;;;28.07;22.20;;;;;;;15.32;100.00;98813.44;4137017;28;20022;-71
2023/06/07 07:00:05;;;;;;;25.42;20.35;;;;;;;15.36;100.00;98805.84;4140287;28;20140;-71
2023/06/07 07:02:06;;;;;;;26.15;19.95;;;;;;;15.46;100.00;98802.22;4140539;28;20030;-71
2023/06/07 07:04:06;;;;;;;29.23;23.20;;;;;;;15.56;100.00;98808.97;4139452;28;20033;-71
2023/06/07 07:06:10;;;;;;;28.23;21.50;;;;;;;15.63;100.00;98808.97;4133806;28;20746;-71
2023/06/07 07:08:10;;;;;;;27.65;22.65;;;;;;;15.67;100.00;98810.56;4137178;28;20709;-71
2023/06/07 07:10:11;;;;;;;28.63;22.95;;;;;;;15.72;100.00;98810.16;4136278;28;20034;-71
2023/06/07 07:12:12;;;;;;;21.58;18.73;;;;;;;15.79;100.00;98819.66;4139275;28;20351;-71
2023/06/07 07:14:12;;;;;;;27.85;21.88;;;;;;;15.85;100.00;98806.91;4136599;28;20026;-71
2023/06/07 07:16:12;;;;;;;27.42;21.65;;;;;;;15.91;100.00;98814.44;4139740;28;20255;-71
2023/06/07 07:18:13;;;;;;;24.98;20.67;;;;;;;15.92;100.00;98816.03;4138247;28;20034;-71
2023/06/07 07:20:15;;;;;;;26.92;21.75;;;;;;;15.99;100.00;98823.59;4137361;28;20022;-71
2023/06/07 07:22:15;;;;;;;25.63;20.58;;;;;;;16.03;100.00;98821.56;4139708;28;20034;-71
2023/06/07 07:24:15;;;;;;;23.50;20.02;;;;;;;16.12;100.00;98818.31;4140189;28;20026;-71
2023/06/07 07:26:16;;;;;;;25.58;19.67;;;;;;;16.23;100.00;98819.06;4140340;28;20033;-71
2023/06/07 07:28:17;;;;;;;27.73;19.65;;;;;;;16.37;100.00;98820.97;4139358;28;20482;-71
2023/06/07 07:30:17;;;;;;;23.85;20.10;;;;;;;16.47;100.00;98812.53;4137147;28;20405;-71
2023/06/07 07:32:18;;;;;;;22.80;19.23;;;;;;;16.60;100.00;98820.41;4138906;28;20076;-71
2023/06/07 07:34:18;;;;;;;24.13;20.33;;;;;;;16.70;100.00;98817.56;4141161;28;20121;-71
2023/06/07 07:36:21;;;;;;;28.70;19.35;;;;;;;16.77;100.00;98811.13;4147178;28;20013;-71
2023/06/07 07:38:22;;;;;;;23.27;18.85;;;;;;;16.99;100.00;98809.75;4156557;28;20049;-71
2023/06/07 07:40:24;;;;;;;20.98;18.02;;;;;;;17.27;100.00;98819.06;4156455;28;20459;-71
2023/06/07 07:42:24;;;;;;;19.80;17.73;;;;;;;17.30;100.00;98812.66;4153231;28;20041;-71
2023/06/07 07:44:24;;;;;;;17.88;15.55;;;;;;;17.42;100.00;98812.91;4156637;28;20502;-71
2023/06/07 07:46:25;;;;;;;18.95;16.80;;;;;;;17.58;100.00;98809.56;4156015;28;20646;-71
2023/06/07 07:48:25;;;;;;;17.83;15.40;;;;;;;17.57;100.00;98821.97;4157009;28;20322;-71
2023/06/07 07:50:26;;;;;;;17.10;15.27;;;;;;;17.57;100.00;98809.97;4156913;28;20033;-71
2023/06/07 07:52:26;;;;;;;17.30;15.32;;;;;;;17.67;100.00;98815.44;4158193;28;20068;-71
2023/06/07 07:54:27;;;;;;;18.30;15.23;;;;;;;17.57;100.00;98813.56;4155704;28;20052;-71
2023/06/07 07:56:27;;;;;;;18.55;15.85;;;;;;;17.60;100.00;98815.50;4156863;28;20311;-71
2023/06/07 07:58:28;;;;;;;18.00;15.88;;;;;;;17.60;100.00;98807.13;4156790;28;20036;-71
2023/06/07 08:00:28;;;;;;;18.35;16.13;;;;;;;17.57;100.00;98812.78;4156790;28;20057;-71
2023/06/07 08:02:29;;;;;;;19.20;16.00;;;;;;;17.58;100.00;98811.56;4156134;28;20036;-71
2023/06/07 08:04:30;;;;;;;15.90;14.38;;;;;;;17.57;100.00;98815.56;4156892;28;20050;-71
2023/06/07 08:06:30;;;;;;;16.73;14.68;;;;;;;17.66;100.00;98815.88;4155356;28;20094;-71
2023/06/07 08:08:31;;;;;;;16.75;14.10;;;;;;;17.79;100.00;98810.53;4154790;28;20128;-71
2023/06/07 08:10:31;;;;;;;16.08;13.65;;;;;;;17.97;100.00;98813.91;4158180;28;20368;-71
2023/06/07 08:12:32;;;;;;;14.30;12.80;;;;;;;18.17;100.00;98817.63;4156562;28;20481;-72
2023/06/07 08:14:32;;;;;;;13.70;12.05;;;;;;;18.15;100.00;98820.06;4157182;28;20041;-71
2023/06/07 08:16:32;;;;;;;15.27;11.82;;;;;;;18.36;100.00;98816.16;4158133;28;20098;-71
2023/06/07 08:18:33;;;;;;;15.48;12.68;;;;;;;18.42;100.00;98810.88;4157559;28;20481;-71
2023/06/07 08:20:33;;;;;;;17.15;13.13;;;;;;;18.39;100.00;98806.16;4156906;28;20124;-71
2023/06/07 08:22:35;;;;;;;15.38;13.73;;;;;;;18.38;100.00;98805.34;4156184;28;20599;-71
2023/06/07 08:24:35;;;;;;;15.45;13.95;;;;;;;18.23;100.00;98809.56;4158097;28;20053;-71
2023/06/07 08:26:35;;;;;;;17.98;13.80;;;;;;;18.13;100.00;98814.09;4159463;28;20094;-71
2023/06/07 08:28:36;;;;;;;16.65;13.98;;;;;;;18.10;100.00;98816.94;4158724;28;20045;-71
2023/06/07 08:30:36;;;;;;;17.35;14.13;;;;;;;18.06;100.00;98811.41;4159819;28;20056;-71
2023/06/07 08:32:37;;;;;;;15.65;14.00;;;;;;;18.21;100.00;98812.78;4155958;28;20320;-71
2023/06/07 08:34:39;;;;;;;19.08;14.60;;;;;;;18.30;100.00;98809.47;4158033;28;20095;-71
2023/06/07 08:36:41;;;;;;;17.40;14.82;;;;;;;18.50;100.00;98807.56;4156693;28;20113;-71
2023/06/07 08:38:42;;;;;;;18.15;14.55;;;;;;;18.64;100.00;98805.75;4155487;28;20390;-71
2023/06/07 08:40:42;;;;;;;15.55;13.60;;;;;;;18.53;100.00;98797.50;4157237;28;20374;-71
2023/06/07 08:42:42;;;;;;;14.73;13.00;;;;;;;18.57;100.00;98809.47;4155978;28;20060;-71
2023/06/07 08:44:43;;;;;;;15.27;12.45;;;;;;;18.72;100.00;98819.28;4155602;28;20339;-71
2023/06/07 08:46:46;;;;;;;14.73;12.38;;;;;;;18.95;100.00;98812.06;4157007;28;20813;-71
2023/06/07 08:48:51;;;;;;;17.48;14.30;;;;;;;19.13;100.00;98821.00;4156520;28;20034;-71
2023/06/07 08:50:54;;;;;;;14.00;12.60;;;;;;;19.27;100.00;98819.94;4156729;28;20072;-71
2023/06/07 08:52:56;;;;;;;15.75;14.00;;;;;;;19.28;100.00;98815.91;4155337;28;20087;-71
2023/06/07 08:55:02;;;;;;;15.85;13.70;;;;;;;19.17;100.00;98818.91;4158923;28;20044;-72
2023/06/07 08:57:03;;;;;;;15.98;13.48;;;;;;;19.14;100.00;98813.38;4157329;28;20045;-71
2023/06/07 08:59:04;;;;;;;15.00;12.52;;;;;;;19.25;100.00;98823.16;4157476;28;20377;-71
2023/06/07 09:01:05;;;;;;;16.40;14.15;;;;;;;19.20;100.00;98814.47;4160155;28;20128;-71
2023/06/07 09:03:06;;;;;;;16.92;15.10;;;;;;;19.08;100.00;98824.28;4159336;28;20446;-71
2023/06/07 09:05:06;;;;;;;16.42;14.73;;;;;;;18.92;100.00;98829.75;4160160;28;20571;-71
2023/06/07 09:07:10;;;;;;;17.60;15.90;;;;;;;18.82;100.00;98822.31;4159462;28;20486;-72
2023/06/07 09:09:11;;;;;;;17.80;15.63;;;;;;;18.55;100.00;98819.53;4159843;28;20041;-71
2023/06/07 09:11:11;;;;;;;15.90;14.20;;;;;;;18.59;100.00;98831.44;4159595;28;20094;-71